createdAt,value
2019-03-05T00:01:54.355Z,8.61
2019-03-05T00:04:25.148Z,8.60
2019-03-05T00:06:56.511Z,8.57
2019-03-05T00:09:27.443Z,8.59
2019-03-05T00:11:58.086Z,8.62
2019-03-05T00:14:28.913Z,8.60
2019-03-05T00:16:59.626Z,8.65
2019-03-05T00:19:30.517Z,8.65
2019-03-05T00:22:01.108Z,8.67
2019-03-05T00:25:02.520Z,8.71
2019-03-05T00:27:55.663Z,8.71
2019-03-05T00:30:53.037Z,8.61
2019-03-05T00:34:07.392Z,8.61
2019-03-05T00:36:44.773Z,8.59
2019-03-05T00:40:05.178Z,8.55
2019-03-05T00:43:20.576Z,8.52
2019-03-05T00:46:13.715Z,8.50
2019-03-05T00:49:21.072Z,8.53
2019-03-05T00:52:15.666Z,8.44
2019-03-05T00:55:02.225Z,8.38
2019-03-05T00:58:03.168Z,8.32
2019-03-05T01:01:09.426Z,8.31
2019-03-05T01:03:56.315Z,8.35
2019-03-05T01:06:28.634Z,8.33
2019-03-05T01:08:59.555Z,8.33
2019-03-05T01:11:30.077Z,8.40
2019-03-05T01:14:01.425Z,8.45
2019-03-05T01:16:33.713Z,8.48
2019-03-05T01:19:04.518Z,8.52
2019-03-05T01:21:35.400Z,8.52
2019-03-05T01:24:07.246Z,8.60
2019-03-05T01:26:37.826Z,8.69
2019-03-05T01:29:08.999Z,8.75
2019-03-05T01:32:13.752Z,8.75
2019-03-05T01:35:03.757Z,8.73
2019-03-05T01:37:34.420Z,8.77
2019-03-05T01:40:14.435Z,8.84
2019-03-05T01:42:45.825Z,8.80
2019-03-05T01:45:17.068Z,8.74
2019-03-05T01:47:47.860Z,8.74
2019-03-05T01:50:18.448Z,8.84
2019-03-05T01:52:49.085Z,8.84
2019-03-05T01:55:19.976Z,8.84
2019-03-05T01:57:50.758Z,8.86
2019-03-05T02:00:21.630Z,8.86
2019-03-05T02:02:52.417Z,8.86
2019-03-05T02:05:23.102Z,8.80
2019-03-05T02:07:54.283Z,8.77
2019-03-05T02:10:24.954Z,8.67
2019-03-05T02:12:55.761Z,8.59
2019-03-05T02:15:27.743Z,8.59
2019-03-05T02:17:59.553Z,8.52
2019-03-05T02:20:30.626Z,8.52
2019-03-05T02:23:37.386Z,8.50
2019-03-05T02:26:42.567Z,8.43
2019-03-05T02:29:43.246Z,8.38
2019-03-05T02:32:40.229Z,8.38
2019-03-05T02:35:51.298Z,8.43
2019-03-05T02:38:57.975Z,8.43
2019-03-05T02:42:02.601Z,8.43
2019-03-05T02:44:52.713Z,8.41
2019-03-05T02:48:14.657Z,8.38
2019-03-05T02:51:14.810Z,8.39
2019-03-05T02:54:25.938Z,8.42
2019-03-05T02:57:10.152Z,8.44
2019-03-05T02:59:41.060Z,8.46
2019-03-05T03:02:30.188Z,8.45
2019-03-05T03:05:10.363Z,8.49
2019-03-05T03:07:40.947Z,8.53
2019-03-05T03:10:16.498Z,8.61
2019-03-05T03:12:48.672Z,8.66
2019-03-05T03:15:21.285Z,8.73
2019-03-05T03:17:53.478Z,8.71
2019-03-05T03:20:24.800Z,8.73
2019-03-05T03:22:55.434Z,8.74
2019-03-05T03:25:26.355Z,8.77
2019-03-05T03:27:56.909Z,8.82
2019-03-05T03:30:28.562Z,8.87
2019-03-05T03:32:59.413Z,8.85
2019-03-05T03:35:51.528Z,8.85
2019-03-05T03:38:22.827Z,8.84
2019-03-05T03:40:53.711Z,8.89
2019-03-05T03:43:24.515Z,8.92
2019-03-05T03:45:55.393Z,8.92
2019-03-05T03:48:26.242Z,8.90
2019-03-05T03:50:57.767Z,8.92
2019-03-05T03:53:28.792Z,8.90
2019-03-05T03:56:00.966Z,8.82
2019-03-05T03:58:31.798Z,8.82
2019-03-05T04:01:02.584Z,8.71
2019-03-05T04:03:33.167Z,8.62
2019-03-05T04:06:04.009Z,8.62
2019-03-05T04:08:34.693Z,8.51
2019-03-05T04:11:05.377Z,8.34
2019-03-05T04:13:36.065Z,8.21
2019-03-05T04:16:06.865Z,8.20
2019-03-05T04:18:37.706Z,8.16
2019-03-05T04:21:08.409Z,8.21
2019-03-05T04:23:39.081Z,8.25
2019-03-05T04:26:09.873Z,8.23
2019-03-05T04:28:40.859Z,8.19
2019-03-05T04:31:11.557Z,8.21
2019-03-05T04:33:42.626Z,8.17
2019-03-05T04:36:13.197Z,8.08
2019-03-05T04:38:44.372Z,8.04
2019-03-05T04:41:15.045Z,7.97
2019-03-05T04:43:45.824Z,7.93
2019-03-05T04:46:35.252Z,7.79
2019-03-05T04:49:43.467Z,7.80
2019-03-05T04:52:16.766Z,7.90
2019-03-05T04:54:48.567Z,7.95
2019-03-05T04:57:19.330Z,8.00
2019-03-05T04:59:50.126Z,8.02
2019-03-05T05:02:20.763Z,8.06
2019-03-05T05:04:51.350Z,8.18
2019-03-05T05:07:22.178Z,8.25
2019-03-05T05:09:53.219Z,8.35
2019-03-05T05:12:23.942Z,8.43
2019-03-05T05:15:14.728Z,8.50
2019-03-05T05:17:45.638Z,8.59
2019-03-05T05:20:16.436Z,8.59
2019-03-05T05:22:47.235Z,8.66
2019-03-05T05:25:18.338Z,8.77
2019-03-05T05:27:49.027Z,9.04
2019-03-05T05:30:32.069Z,9.10
2019-03-05T05:33:03.393Z,9.10
2019-03-05T05:35:34.283Z,9.29
2019-03-05T05:38:05.260Z,9.34
2019-03-05T05:40:40.141Z,9.76
2019-03-05T05:43:22.470Z,9.76
2019-03-05T05:45:53.889Z,9.98
2019-03-05T05:48:24.423Z,10.23
2019-03-05T05:50:56.071Z,10.48
2019-03-05T05:53:27.090Z,10.67
2019-03-05T05:55:58.746Z,10.87
2019-03-05T05:58:29.456Z,11.14
2019-03-05T06:01:02.879Z,11.49
2019-03-05T06:03:33.597Z,11.81
2019-03-05T06:06:04.595Z,12.43
2019-03-05T06:08:37.886Z,12.84
2019-03-05T06:11:08.762Z,13.25
2019-03-05T06:13:39.566Z,13.45
2019-03-05T06:16:10.460Z,13.60
2019-03-05T06:18:41.149Z,13.98
2019-03-05T06:21:11.785Z,14.46
2019-03-05T06:23:42.336Z,15.07
2019-03-05T06:26:12.664Z,15.70
2019-03-05T06:28:43.277Z,16.44
2019-03-05T06:31:14.002Z,16.41
2019-03-05T06:33:44.425Z,15.86
2019-03-05T06:36:15.164Z,15.67
2019-03-05T06:38:46.945Z,15.32
2019-03-05T06:41:17.514Z,15.11
2019-03-05T06:43:47.928Z,14.87
2019-03-05T06:46:18.603Z,14.52
2019-03-05T06:48:49.297Z,13.97
2019-03-05T06:51:20.888Z,13.67
2019-03-05T06:53:51.783Z,13.38
2019-03-05T06:56:22.484Z,13.11
2019-03-05T06:58:53.019Z,12.86
2019-03-05T07:01:23.645Z,12.61
2019-03-05T07:03:54.655Z,12.44
2019-03-05T07:06:50.205Z,12.36
2019-03-05T07:09:46.756Z,12.35
2019-03-05T07:12:30.482Z,12.27
2019-03-05T07:15:25.709Z,12.28
2019-03-05T07:18:02.650Z,12.30
2019-03-05T07:21:03.981Z,12.33
2019-03-05T07:24:12.522Z,12.35
2019-03-05T07:26:42.859Z,12.41
2019-03-05T07:29:13.491Z,12.44
2019-03-05T07:31:44.381Z,12.59
2019-03-05T07:34:20.523Z,12.63
2019-03-05T07:36:51.195Z,12.64
2019-03-05T07:39:23.952Z,12.71
2019-03-05T07:41:54.653Z,12.81
2019-03-05T07:44:25.455Z,12.90
2019-03-05T07:46:56.031Z,13.03
2019-03-05T07:49:26.776Z,13.05
2019-03-05T07:51:57.577Z,13.16
2019-03-05T07:54:28.303Z,13.29
2019-03-05T07:57:00.750Z,13.35
2019-03-05T07:59:31.450Z,13.45
2019-03-05T08:02:02.064Z,13.55
2019-03-05T08:04:32.766Z,13.62
2019-03-05T08:07:03.615Z,13.60
2019-03-05T08:09:41.075Z,13.69
2019-03-05T08:12:38.681Z,13.82
2019-03-05T08:15:48.458Z,13.98
2019-03-05T08:18:19.331Z,13.95
2019-03-05T08:20:50.184Z,14.06
2019-03-05T08:23:20.807Z,14.23
2019-03-05T08:25:52.117Z,14.33
2019-03-05T08:28:22.876Z,14.39
2019-03-05T08:30:54.033Z,14.51
2019-03-05T08:33:24.846Z,14.57
2019-03-05T08:35:55.750Z,14.71
2019-03-05T08:38:26.653Z,14.82
2019-03-05T08:40:57.849Z,14.92
2019-03-05T08:43:28.571Z,14.98
2019-03-05T08:45:59.735Z,15.00
2019-03-05T08:48:30.550Z,15.11
2019-03-05T08:51:01.331Z,15.25
2019-03-05T08:53:32.452Z,15.36
2019-03-05T08:56:05.606Z,15.43
2019-03-05T08:58:36.157Z,15.47
2019-03-05T09:01:07.999Z,15.59
2019-03-05T09:03:39.014Z,15.74
2019-03-05T09:06:09.998Z,15.87
2019-03-05T09:08:40.870Z,16.03
2019-03-05T09:11:12.801Z,16.17
2019-03-05T09:13:43.582Z,16.31
2019-03-05T09:16:14.266Z,16.35
2019-03-05T09:18:45.007Z,16.27
2019-03-05T09:21:15.923Z,16.30
2019-03-05T09:23:48.588Z,16.24
2019-03-05T09:26:20.901Z,16.34
2019-03-05T09:28:51.543Z,16.41
2019-03-05T09:31:22.294Z,16.48
2019-03-05T09:33:53.005Z,16.43
2019-03-05T09:36:23.538Z,16.49
2019-03-05T09:38:54.179Z,16.68
2019-03-05T09:41:24.637Z,16.77
2019-03-05T09:43:56.387Z,16.92
2019-03-05T09:46:27.268Z,16.88
2019-03-05T09:48:58.015Z,16.86
2019-03-05T09:51:28.908Z,16.99
2019-03-05T09:53:59.608Z,17.09
2019-03-05T09:56:31.009Z,17.29
2019-03-05T09:59:01.811Z,17.39
2019-03-05T10:01:32.459Z,17.50
2019-03-05T10:04:03.613Z,17.55
2019-03-05T10:06:34.235Z,17.69
2019-03-05T10:09:06.000Z,17.82
2019-03-05T10:11:36.875Z,18.04
2019-03-05T10:14:07.853Z,18.25
2019-03-05T10:16:38.963Z,18.40
2019-03-05T10:19:09.863Z,18.64
2019-03-05T10:21:46.302Z,18.64
2019-03-05T10:24:13.032Z,18.68
2019-03-05T10:26:45.946Z,18.74
2019-03-05T10:29:16.888Z,18.89
2019-03-05T10:31:47.894Z,19.12
2019-03-05T10:34:18.611Z,19.19
2019-03-05T10:36:49.483Z,19.31
2019-03-05T10:39:30.991Z,19.38
2019-03-05T10:42:00.618Z,19.48
2019-03-05T10:44:32.905Z,19.52
2019-03-05T10:47:03.810Z,19.72
2019-03-05T10:49:34.438Z,19.95
2019-03-05T10:52:05.383Z,20.08
2019-03-05T10:54:35.931Z,20.23
2019-03-05T10:57:07.520Z,20.27
2019-03-05T10:59:39.567Z,20.41
2019-03-05T11:02:10.584Z,20.54
2019-03-05T11:04:45.667Z,20.64
2019-03-05T11:07:14.051Z,20.70
2019-03-05T11:09:45.045Z,20.71
2019-03-05T11:12:15.924Z,20.60
2019-03-05T11:14:46.790Z,20.70
2019-03-05T11:17:17.780Z,20.67
2019-03-05T11:19:48.728Z,20.53
2019-03-05T11:22:19.535Z,20.52
2019-03-05T11:24:50.142Z,20.56
2019-03-05T11:27:20.820Z,20.53
2019-03-05T11:29:51.445Z,20.54
2019-03-05T11:32:22.989Z,20.49
2019-03-05T11:34:53.865Z,20.27
2019-03-05T11:37:24.917Z,20.20
2019-03-05T11:39:55.830Z,20.15
2019-03-05T11:42:26.599Z,20.19
2019-03-05T11:45:07.155Z,20.27
2019-03-05T11:47:30.669Z,20.32
2019-03-05T11:50:01.405Z,20.36
2019-03-05T11:52:32.097Z,20.43
2019-03-05T11:55:02.991Z,20.52
2019-03-05T11:57:37.630Z,20.63
2019-03-05T12:00:11.312Z,20.83
2019-03-05T12:02:42.138Z,21.02
2019-03-05T12:05:13.076Z,21.15
2019-03-05T12:07:46.090Z,21.25
2019-03-05T12:10:18.933Z,21.23
2019-03-05T12:12:49.833Z,21.25
2019-03-05T12:15:20.824Z,21.23
2019-03-05T12:17:51.803Z,21.01
2019-03-05T12:20:22.484Z,20.89
2019-03-05T12:22:53.399Z,20.81
2019-03-05T12:25:24.496Z,20.75
2019-03-05T12:27:56.532Z,20.71
2019-03-05T12:30:27.428Z,20.64
2019-03-05T12:32:58.020Z,20.53
2019-03-05T12:35:28.859Z,20.51
2019-03-05T12:37:59.867Z,20.42
2019-03-05T12:40:30.812Z,20.64
2019-03-05T12:43:01.980Z,20.58
2019-03-05T12:45:32.715Z,20.43
2019-03-05T12:48:03.518Z,20.34
2019-03-05T12:50:34.414Z,20.51
2019-03-05T12:53:06.749Z,20.55
2019-03-05T12:55:38.993Z,20.55
2019-03-05T12:58:09.566Z,20.53
2019-03-05T13:00:41.955Z,20.55
2019-03-05T13:03:12.917Z,20.60
2019-03-05T13:05:44.041Z,20.64
2019-03-05T13:08:14.937Z,20.71
2019-03-05T13:10:46.115Z,20.63
2019-03-05T13:13:17.019Z,20.57
2019-03-05T13:15:47.889Z,20.49
2019-03-05T13:18:20.335Z,20.39
2019-03-05T13:20:51.012Z,20.44
2019-03-05T13:23:21.922Z,20.50
2019-03-05T13:25:52.721Z,20.34
2019-03-05T13:28:23.404Z,20.25
2019-03-05T13:30:54.474Z,20.15
2019-03-05T13:33:25.267Z,20.12
2019-03-05T13:35:56.097Z,20.05
2019-03-05T13:38:26.946Z,20.06
2019-03-05T13:40:58.126Z,20.04
2019-03-05T13:43:29.003Z,20.00
2019-03-05T13:46:00.072Z,19.84
2019-03-05T13:49:09.206Z,19.79
2019-03-05T13:52:20.534Z,19.73
2019-03-05T13:55:15.158Z,19.71
2019-03-05T13:58:22.237Z,19.75
2019-03-05T14:00:53.198Z,19.71
2019-03-05T14:03:34.811Z,19.65
2019-03-05T14:06:40.710Z,19.63
2019-03-05T14:09:19.344Z,19.66
2019-03-05T14:11:51.613Z,19.58
2019-03-05T14:14:28.446Z,19.52
2019-03-05T14:17:25.628Z,19.51
2019-03-05T14:19:56.667Z,19.52
2019-03-05T14:22:27.547Z,19.62
2019-03-05T14:25:02.582Z,19.78
2019-03-05T14:27:30.908Z,19.66
2019-03-05T14:30:03.065Z,19.63
2019-03-05T14:32:34.364Z,19.60
2019-03-05T14:35:14.016Z,19.54
2019-03-05T14:37:45.191Z,19.50
2019-03-05T14:40:24.536Z,19.43
2019-03-05T14:42:54.586Z,19.39
2019-03-05T14:45:28.585Z,19.29
2019-03-05T14:48:00.936Z,19.11
2019-03-05T14:50:31.926Z,19.08
2019-03-05T14:53:02.668Z,18.96
2019-03-05T14:55:34.154Z,18.88
2019-03-05T14:58:06.904Z,18.89
2019-03-05T15:00:38.225Z,18.79
2019-03-05T15:03:09.143Z,18.88
2019-03-05T15:05:40.031Z,18.71
2019-03-05T15:08:12.266Z,18.69
2019-03-05T15:10:42.907Z,18.67
2019-03-05T15:13:17.349Z,18.60
2019-03-05T15:15:46.406Z,18.48
2019-03-05T15:18:17.916Z,18.39
2019-03-05T15:20:48.754Z,18.34
2019-03-05T15:23:19.317Z,18.30
2019-03-05T15:25:50.045Z,18.25
2019-03-05T15:28:21.059Z,18.16
2019-03-05T15:30:52.015Z,18.09
2019-03-05T15:33:22.682Z,17.97
2019-03-05T15:35:53.290Z,17.87
2019-03-05T15:38:25.169Z,17.80
2019-03-05T15:40:57.314Z,17.69
2019-03-05T15:43:28.227Z,17.74
2019-03-05T15:45:59.251Z,17.66
2019-03-05T15:48:29.975Z,17.66
2019-03-05T15:51:00.837Z,17.67
2019-03-05T15:53:31.765Z,17.62
2019-03-05T15:56:02.594Z,17.49
2019-03-05T15:58:35.390Z,17.47
2019-03-05T16:01:09.811Z,17.45
2019-03-05T16:03:40.288Z,17.39
2019-03-05T16:06:13.894Z,17.32
2019-03-05T16:08:43.916Z,17.25
2019-03-05T16:11:14.990Z,17.14
2019-03-05T16:13:46.904Z,17.09
2019-03-05T16:16:19.190Z,17.06
2019-03-05T16:18:50.237Z,17.08
2019-03-05T16:21:21.183Z,17.06
2019-03-05T16:23:51.962Z,17.07
2019-03-05T16:26:24.679Z,17.05
2019-03-05T16:28:55.707Z,17.01
2019-03-05T16:31:36.664Z,17.02
2019-03-05T16:34:40.680Z,17.07
2019-03-05T16:37:26.252Z,17.00
2019-03-05T16:40:05.116Z,16.94
2019-03-05T16:42:51.275Z,16.90
2019-03-05T16:45:34.504Z,16.85
2019-03-05T16:48:36.467Z,16.85
2019-03-05T16:51:26.529Z,16.80
2019-03-05T16:54:22.616Z,16.75
2019-03-05T16:57:27.228Z,16.73
2019-03-05T17:00:19.164Z,16.74
2019-03-05T17:03:12.017Z,16.69
2019-03-05T17:05:56.203Z,16.67
2019-03-05T17:08:58.353Z,16.70
2019-03-05T17:11:59.990Z,16.55
2019-03-05T17:14:31.312Z,16.56
2019-03-05T17:17:05.761Z,16.40
2019-03-05T17:19:36.360Z,16.40
2019-03-05T17:22:08.295Z,16.38
2019-03-05T17:24:39.125Z,16.35
2019-03-05T17:27:10.234Z,16.33
2019-03-05T17:29:41.004Z,16.27
2019-03-05T17:32:12.675Z,16.27
2019-03-05T17:34:44.026Z,16.23
2019-03-05T17:37:18.605Z,16.17
2019-03-05T17:39:49.490Z,16.09
2019-03-05T17:42:20.508Z,16.04
2019-03-05T17:44:51.828Z,15.95
2019-03-05T17:47:24.479Z,15.98
2019-03-05T17:49:55.377Z,15.91
2019-03-05T17:52:26.098Z,15.81
2019-03-05T17:54:56.868Z,15.84
2019-03-05T17:57:27.820Z,15.86
2019-03-05T17:59:58.838Z,15.85
2019-03-05T18:02:29.718Z,15.84
2019-03-05T18:05:00.549Z,15.77
2019-03-05T18:07:31.757Z,15.67
2019-03-05T18:10:02.699Z,15.73
2019-03-05T18:12:33.697Z,15.73
2019-03-05T18:15:04.996Z,15.77
2019-03-05T18:17:36.311Z,15.80
2019-03-05T18:20:09.464Z,15.77
2019-03-05T18:22:40.379Z,15.71
2019-03-05T18:25:13.384Z,15.72
2019-03-05T18:27:45.445Z,15.70
2019-03-05T18:30:19.668Z,15.64
2019-03-05T18:32:52.050Z,15.64
2019-03-05T18:35:24.108Z,15.65
2019-03-05T18:37:54.884Z,15.55
2019-03-05T18:40:27.476Z,15.47
2019-03-05T18:42:58.392Z,15.53
2019-03-05T18:45:30.632Z,15.54
2019-03-05T18:48:02.506Z,15.45
2019-03-05T18:50:36.277Z,15.46
2019-03-05T18:53:27.122Z,15.43
2019-03-05T18:55:58.020Z,15.46
2019-03-05T18:58:28.606Z,15.36
2019-03-05T19:00:59.434Z,15.33
2019-03-05T19:03:30.448Z,15.24
2019-03-05T19:06:01.280Z,15.23
2019-03-05T19:08:32.093Z,15.26
2019-03-05T19:11:03.188Z,15.21
2019-03-05T19:13:34.369Z,15.19
2019-03-05T19:16:05.445Z,15.16
2019-03-05T19:18:36.664Z,15.22
2019-03-05T19:21:07.911Z,15.08
2019-03-05T19:23:38.742Z,15.10
2019-03-05T19:26:11.168Z,15.03
2019-03-05T19:28:43.418Z,15.11
2019-03-05T19:31:14.194Z,15.14
2019-03-05T19:33:45.066Z,15.11
2019-03-05T19:36:20.362Z,15.17
2019-03-05T19:38:51.210Z,15.14
2019-03-05T19:41:23.132Z,15.12
2019-03-05T19:43:54.367Z,15.13
2019-03-05T19:46:25.603Z,15.09
2019-03-05T19:48:57.769Z,15.10
2019-03-05T19:51:28.572Z,15.02
2019-03-05T19:53:59.539Z,15.01
2019-03-05T19:56:31.969Z,15.05
2019-03-05T19:59:02.617Z,15.09
2019-03-05T20:01:45.597Z,15.05
2019-03-05T20:04:16.634Z,15.01
2019-03-05T20:06:49.171Z,15.00
2019-03-05T20:09:21.829Z,14.93
2019-03-05T20:11:53.401Z,14.89
2019-03-05T20:14:24.348Z,14.93
2019-03-05T20:16:58.590Z,15.00
2019-03-05T20:19:29.494Z,14.97
2019-03-05T20:22:00.484Z,14.94
2019-03-05T20:24:32.565Z,14.98
2019-03-05T20:27:03.283Z,14.97
2019-03-05T20:29:34.132Z,15.00
2019-03-05T20:32:06.651Z,14.93
2019-03-05T20:34:37.274Z,14.86
2019-03-05T20:37:08.250Z,14.86
2019-03-05T20:39:39.003Z,14.83
2019-03-05T20:42:09.934Z,14.77
2019-03-05T20:44:40.455Z,14.69
2019-03-05T20:47:11.527Z,14.54
2019-03-05T20:49:42.896Z,14.51
2019-03-05T20:52:14.790Z,14.49
2019-03-05T20:54:45.389Z,14.46
2019-03-05T20:57:16.163Z,14.47
2019-03-05T20:59:48.490Z,14.50
2019-03-05T21:02:20.619Z,14.51
2019-03-05T21:04:51.324Z,14.51
2019-03-05T21:07:22.169Z,14.41
2019-03-05T21:09:53.474Z,14.41
2019-03-05T21:12:24.164Z,14.39
2019-03-05T21:14:55.134Z,14.38
2019-03-05T21:17:27.045Z,14.31
2019-03-05T21:19:57.846Z,14.33
2019-03-05T21:22:30.436Z,14.31
2019-03-05T21:25:01.474Z,14.25
2019-03-05T21:27:32.110Z,14.21
2019-03-05T21:30:03.255Z,14.20
2019-03-05T21:32:34.269Z,14.19
2019-03-05T21:35:04.935Z,14.17
2019-03-05T21:37:35.970Z,14.17
2019-03-05T21:40:07.781Z,14.15
2019-03-05T21:42:39.583Z,14.21
2019-03-05T21:45:11.560Z,14.25
2019-03-05T21:47:42.392Z,14.24
2019-03-05T21:50:15.996Z,14.24
2019-03-05T21:52:47.286Z,14.18
2019-03-05T21:55:18.563Z,14.16
2019-03-05T21:57:49.293Z,14.12
2019-03-05T22:00:22.573Z,14.10
2019-03-05T22:02:53.341Z,14.00
2019-03-05T22:05:24.537Z,13.92
2019-03-05T22:07:55.114Z,13.91
2019-03-05T22:10:26.179Z,13.86
2019-03-05T22:12:57.047Z,13.77
2019-03-05T22:15:29.175Z,13.63
2019-03-05T22:17:59.923Z,13.48
2019-03-05T22:20:30.540Z,13.20
2019-03-05T22:23:01.540Z,12.97
2019-03-05T22:25:32.219Z,12.57
2019-03-05T22:28:03.145Z,12.11
2019-03-05T22:30:34.118Z,11.88
2019-03-05T22:33:04.843Z,11.61
2019-03-05T22:35:35.666Z,11.39
2019-03-05T22:38:06.433Z,11.32
2019-03-05T22:40:37.260Z,11.21
2019-03-05T22:43:07.873Z,11.18
2019-03-05T22:45:39.124Z,11.15
2019-03-05T22:48:10.251Z,11.19
2019-03-05T22:50:41.221Z,11.22
2019-03-05T22:53:12.026Z,11.18
2019-03-05T22:55:43.120Z,11.18
2019-03-05T22:58:14.201Z,11.19
2019-03-05T23:01:17.782Z,11.22
2019-03-05T23:03:57.438Z,11.13
2019-03-05T23:06:30.020Z,11.00
2019-03-05T23:09:00.924Z,10.96
2019-03-05T23:11:32.118Z,10.80
2019-03-05T23:14:03.282Z,10.72
2019-03-05T23:16:34.207Z,10.66
2019-03-05T23:19:05.229Z,10.69
2019-03-05T23:21:37.933Z,10.61
2019-03-05T23:24:09.149Z,10.50
2019-03-05T23:26:39.819Z,10.51
2019-03-05T23:29:12.025Z,10.55
2019-03-05T23:31:43.000Z,10.57
2019-03-05T23:34:18.250Z,10.58
2019-03-05T23:36:48.145Z,10.58
2019-03-05T23:39:19.983Z,10.64
2019-03-05T23:41:51.761Z,10.25
2019-03-05T23:44:22.492Z,10.25
2019-03-05T23:46:55.166Z,10.25
2019-03-05T23:49:27.120Z,10.31
2019-03-05T23:52:01.040Z,10.29
2019-03-05T23:54:31.866Z,10.29
2019-03-05T23:57:02.607Z,10.26
2019-03-05T23:59:35.494Z,10.32
